createdAt,value
2022-10-05T00:01:22.836Z,101476.58
2022-10-05T00:05:16.663Z,101473.09
2022-10-05T00:09:05.532Z,101474.15
2022-10-05T00:12:54.554Z,101481.62
2022-10-05T00:16:46.741Z,101480.84
2022-10-05T00:20:30.116Z,101478.19
2022-10-05T00:24:10.767Z,101473.92
2022-10-05T00:27:40.307Z,101470.61
2022-10-05T00:31:13.018Z,101459.34
2022-10-05T00:34:34.018Z,101462.59
2022-10-05T00:38:02.778Z,101443.84
2022-10-05T00:41:48.619Z,101425.89
2022-10-05T00:45:13.387Z,101431.84
2022-10-05T00:48:42.318Z,101432.79
2022-10-05T00:52:31.357Z,101440.13
2022-10-05T00:56:16.825Z,101446.83
2022-10-05T01:00:11.769Z,101445.65
2022-10-05T01:03:54.906Z,101435.86
2022-10-05T01:08:03.246Z,101425.16
2022-10-05T01:11:58.291Z,101427.30
2022-10-05T01:15:41.298Z,101436.55
2022-10-05T01:19:16.982Z,101433.30
2022-10-05T01:22:42.423Z,101436.18
2022-10-05T01:26:36.387Z,101429.95
2022-10-05T01:30:49.006Z,101421.84
2022-10-05T01:35:01.692Z,101427.48
2022-10-05T01:38:59.270Z,101431.20
2022-10-05T01:42:52.723Z,101423.34
2022-10-05T01:46:44.684Z,101425.98
2022-10-05T01:50:45.802Z,101421.82
2022-10-05T01:54:33.886Z,101418.98
2022-10-05T01:58:25.614Z,101416.41
2022-10-05T02:02:29.172Z,101418.26
2022-10-05T02:06:00.114Z,101415.73
2022-10-05T02:09:41.896Z,101409.39
2022-10-05T02:13:30.749Z,101410.98
2022-10-05T02:17:16.750Z,101402.98
2022-10-05T02:21:08.570Z,101403.20
2022-10-05T02:24:32.197Z,101405.23
2022-10-05T02:28:01.080Z,101393.48
2022-10-05T02:31:44.743Z,101384.64
2022-10-05T02:34:52.212Z,101382.77
2022-10-05T02:38:35.566Z,101385.64
2022-10-05T02:42:45.280Z,101386.95
2022-10-05T02:46:29.687Z,101393.40
2022-10-05T02:50:16.811Z,101405.46
2022-10-05T02:54:00.813Z,101405.10
2022-10-05T02:57:43.706Z,101401.90
2022-10-05T03:01:44.423Z,101387.40
2022-10-05T03:05:34.170Z,101385.71
2022-10-05T03:09:31.077Z,101382.17
2022-10-05T03:13:09.796Z,101379.92
2022-10-05T03:16:14.364Z,101373.02
2022-10-05T03:19:43.349Z,101371.11
2022-10-05T03:23:37.100Z,101370.14
2022-10-05T03:27:33.596Z,101374.79
2022-10-05T03:30:57.026Z,101383.94
2022-10-05T03:34:30.725Z,101382.38
2022-10-05T03:38:13.925Z,101384.00
2022-10-05T03:42:21.295Z,101376.75
2022-10-05T03:45:59.263Z,101377.87
2022-10-05T03:49:35.160Z,101359.64
2022-10-05T03:53:38.733Z,101374.60
2022-10-05T03:57:30.270Z,101382.93
2022-10-05T04:00:36.862Z,101396.23
2022-10-05T04:04:23.710Z,101391.38
2022-10-05T04:08:15.190Z,101387.53
2022-10-05T04:12:12.730Z,101380.71
2022-10-05T04:15:55.942Z,101367.71
2022-10-05T04:18:54.661Z,101374.43
2022-10-05T04:22:52.717Z,101377.12
2022-10-05T04:26:37.128Z,101372.67
2022-10-05T04:30:17.856Z,101372.65
2022-10-05T04:34:05.666Z,101375.02
2022-10-05T04:37:22.386Z,101383.64
2022-10-05T04:41:05.379Z,101387.67
2022-10-05T04:45:01.834Z,101384.73
2022-10-05T04:48:25.731Z,101380.16
2022-10-05T04:51:51.289Z,101382.55
2022-10-05T04:55:38.327Z,101379.05
2022-10-05T04:59:32.858Z,101385.55
2022-10-05T05:03:27.667Z,101380.33
2022-10-05T05:07:12.664Z,101382.44
2022-10-05T05:10:57.196Z,101381.85
2022-10-05T05:14:54.073Z,101394.99
2022-10-05T05:18:46.165Z,101382.40
2022-10-05T05:22:25.324Z,101366.50
2022-10-05T05:26:12.925Z,101368.27
2022-10-05T05:30:23.311Z,101375.91
2022-10-05T05:33:45.882Z,101377.48
2022-10-05T05:37:37.922Z,101372.81
2022-10-05T05:41:19.158Z,101365.93
2022-10-05T05:45:10.791Z,101369.83
2022-10-05T05:48:53.151Z,101369.24
2022-10-05T05:52:01.458Z,101375.52
2022-10-05T05:55:36.244Z,101373.89
2022-10-05T05:58:52.111Z,101378.61
2022-10-05T06:02:29.959Z,101374.39
2022-10-05T06:06:23.443Z,101374.05
2022-10-05T06:09:59.962Z,101373.11
2022-10-05T06:13:53.219Z,101371.27
2022-10-05T06:17:31.341Z,101374.16
2022-10-05T06:21:37.748Z,101374.50
2022-10-05T06:25:02.701Z,101371.18
2022-10-05T06:28:34.787Z,101376.06
2022-10-05T06:32:35.997Z,101380.47
2022-10-05T06:36:29.206Z,101377.05
2022-10-05T06:40:16.617Z,101382.26
2022-10-05T06:44:10.179Z,101379.40
2022-10-05T06:48:05.353Z,101375.96
2022-10-05T06:52:12.089Z,101371.52
2022-10-05T06:56:11.885Z,101370.36
2022-10-05T07:00:18.461Z,101370.23
2022-10-05T07:04:19.947Z,101365.39
2022-10-05T07:08:10.195Z,101372.20
2022-10-05T07:12:03.725Z,101369.75
2022-10-05T07:16:03.421Z,101369.96
2022-10-05T07:20:13.949Z,101366.55
2022-10-05T07:24:09.534Z,101363.22
2022-10-05T07:28:10.859Z,101351.71
2022-10-05T07:32:03.436Z,101353.00
2022-10-05T07:36:02.811Z,101348.53
2022-10-05T07:40:01.352Z,101345.95
2022-10-05T07:44:02.875Z,101354.11
2022-10-05T07:48:04.593Z,101338.61
2022-10-05T07:51:56.414Z,101339.25
2022-10-05T07:55:19.672Z,101336.75
2022-10-05T07:59:09.304Z,101336.94
2022-10-05T08:03:07.489Z,101342.73
2022-10-05T08:06:59.912Z,101347.15
2022-10-05T08:10:55.472Z,101349.23
2022-10-05T08:14:54.951Z,101343.05
2022-10-05T08:19:02.074Z,101339.80
2022-10-05T08:22:51.404Z,101343.96
2022-10-05T08:26:46.122Z,101343.14
2022-10-05T08:30:41.660Z,101342.20
2022-10-05T08:34:30.885Z,101338.06
2022-10-05T08:38:23.322Z,101347.63
2022-10-05T08:42:29.390Z,101348.55
2022-10-05T08:46:27.210Z,101352.16
2022-10-05T08:50:17.633Z,101349.52
2022-10-05T08:54:37.595Z,101347.13
2022-10-05T08:58:25.287Z,101348.36
2022-10-05T09:02:17.758Z,101348.69
2022-10-05T09:06:14.924Z,101338.00
2022-10-05T09:10:10.344Z,101327.09
2022-10-05T09:14:14.409Z,101320.10
2022-10-05T09:18:04.993Z,101320.25
2022-10-05T09:22:21.984Z,101307.91
2022-10-05T09:26:19.965Z,101314.68
2022-10-05T09:30:15.369Z,101319.44
2022-10-05T09:34:20.281Z,101322.87
2022-10-05T09:38:13.889Z,101322.89
2022-10-05T09:42:30.352Z,101324.84
2022-10-05T09:46:40.473Z,101323.11
2022-10-05T09:50:44.315Z,101322.70
2022-10-05T09:54:45.858Z,101319.30
2022-10-05T09:58:37.813Z,101317.52
2022-10-05T10:02:28.820Z,101309.51
2022-10-05T10:06:26.736Z,101305.91
2022-10-05T10:10:16.418Z,101297.85
2022-10-05T10:14:23.974Z,101302.50
2022-10-05T10:18:28.108Z,101293.59
2022-10-05T10:22:34.191Z,101288.81
2022-10-05T10:26:28.322Z,101283.45
2022-10-05T10:30:44.637Z,101284.73
2022-10-05T10:34:35.926Z,101282.28
2022-10-05T10:38:23.539Z,101274.70
2022-10-05T10:42:10.049Z,101265.83
2022-10-05T10:46:05.627Z,101273.76
2022-10-05T10:49:53.969Z,101273.03
2022-10-05T10:53:48.290Z,101276.80
2022-10-05T10:57:52.206Z,101262.02
2022-10-05T11:01:51.180Z,101250.36
2022-10-05T11:05:48.013Z,101244.16
2022-10-05T11:09:44.188Z,101241.55
2022-10-05T11:13:32.235Z,101242.60
2022-10-05T11:17:36.171Z,101249.46
2022-10-05T11:21:34.275Z,101247.92
2022-10-05T11:25:38.854Z,101238.26
2022-10-05T11:29:37.357Z,101239.66
2022-10-05T11:33:40.365Z,101245.04
2022-10-05T11:37:38.401Z,101249.56
2022-10-05T11:41:43.015Z,101252.46
2022-10-05T11:45:43.082Z,101255.98
2022-10-05T11:49:41.066Z,101253.93
2022-10-05T11:53:39.103Z,101251.31
2022-10-05T11:57:31.001Z,101252.11
2022-10-05T12:01:23.050Z,101239.34
2022-10-05T12:05:30.291Z,101232.52
2022-10-05T12:09:28.684Z,101227.97
2022-10-05T12:13:35.625Z,101229.70
2022-10-05T12:17:27.522Z,101216.62
2022-10-05T12:21:09.137Z,101206.48
2022-10-05T12:25:15.991Z,101195.45
2022-10-05T12:29:05.411Z,101190.17
2022-10-05T12:33:02.429Z,101187.06
2022-10-05T12:37:06.493Z,101175.10
2022-10-05T12:41:16.184Z,101183.77
2022-10-05T12:45:16.424Z,101186.84
2022-10-05T12:49:14.247Z,101175.41
2022-10-05T12:53:09.280Z,101168.92
2022-10-05T12:57:04.953Z,101174.39
2022-10-05T13:00:57.344Z,101167.31
2022-10-05T13:04:45.335Z,101159.62
2022-10-05T13:08:33.065Z,101156.77
2022-10-05T13:12:30.925Z,101157.47
2022-10-05T13:16:25.707Z,101158.47
2022-10-05T13:20:07.032Z,101160.43
2022-10-05T13:24:06.590Z,101158.13
2022-10-05T13:27:59.486Z,101155.52
2022-10-05T13:31:54.384Z,101149.14
2022-10-05T13:35:58.405Z,101148.66
2022-10-05T13:39:50.562Z,101137.37
2022-10-05T13:43:50.080Z,101131.39
2022-10-05T13:48:00.072Z,101131.60
2022-10-05T13:52:05.117Z,101132.90
2022-10-05T13:56:21.188Z,101126.06
2022-10-05T14:00:24.238Z,101122.86
2022-10-05T14:04:24.850Z,101116.27
2022-10-05T14:08:11.973Z,101117.16
2022-10-05T14:12:01.012Z,101109.31
2022-10-05T14:15:53.366Z,101105.27
2022-10-05T14:19:57.226Z,101098.75
2022-10-05T14:23:46.325Z,101096.84
2022-10-05T14:27:35.452Z,101098.38
2022-10-05T14:31:24.543Z,101097.89
2022-10-05T14:35:43.765Z,101089.65
2022-10-05T14:39:33.363Z,101084.71
2022-10-05T14:43:24.439Z,101082.23
2022-10-05T14:47:20.450Z,101080.34
2022-10-05T14:51:12.981Z,101078.80
2022-10-05T14:55:04.085Z,101081.45
2022-10-05T14:59:06.303Z,101075.61
2022-10-05T15:03:22.966Z,101069.61
2022-10-05T15:07:15.367Z,101064.74
2022-10-05T15:11:22.463Z,101068.20
2022-10-05T15:15:13.918Z,101058.48
2022-10-05T15:18:59.764Z,101057.98
2022-10-05T15:23:06.835Z,101052.38
2022-10-05T15:27:01.959Z,101056.41
2022-10-05T15:30:49.128Z,101055.61
2022-10-05T15:34:38.866Z,101055.48
2022-10-05T15:38:31.045Z,101053.58
2022-10-05T15:42:22.794Z,101051.56
2022-10-05T15:46:25.990Z,101045.09
2022-10-05T15:50:18.628Z,101044.92
2022-10-05T15:54:09.739Z,101048.35
2022-10-05T15:58:11.296Z,101046.38
2022-10-05T16:02:07.010Z,101050.20
2022-10-05T16:06:04.320Z,101051.21
2022-10-05T16:10:13.913Z,101050.13
2022-10-05T16:14:14.799Z,101055.45
2022-10-05T16:18:25.422Z,101051.08
2022-10-05T16:22:23.907Z,101056.90
2022-10-05T16:26:22.274Z,101051.36
2022-10-05T16:30:12.279Z,101056.25
2022-10-05T16:34:04.565Z,101056.23
2022-10-05T16:37:50.255Z,101056.23
2022-10-05T16:41:42.703Z,101060.09
2022-10-05T16:45:45.425Z,101059.96
2022-10-05T16:49:47.145Z,101061.83
2022-10-05T16:53:36.555Z,101059.70
2022-10-05T16:57:34.736Z,101062.72
2022-10-05T17:01:26.282Z,101066.41
2022-10-05T17:05:29.522Z,101070.89
2022-10-05T17:09:21.216Z,101072.13
2022-10-05T17:13:19.408Z,101072.96
2022-10-05T17:17:16.965Z,101072.66
2022-10-05T17:21:27.426Z,101072.29
2022-10-05T17:25:28.894Z,101079.11
2022-10-05T17:29:16.767Z,101079.30
2022-10-05T17:33:11.235Z,101082.40
2022-10-05T17:37:04.504Z,101082.17
2022-10-05T17:41:05.857Z,101087.67
2022-10-05T17:45:14.092Z,101087.35
2022-10-05T17:48:54.457Z,101079.27
2022-10-05T17:52:42.151Z,101079.22
2022-10-05T17:56:37.307Z,101080.30
2022-10-05T18:00:39.271Z,101073.01
2022-10-05T18:04:54.687Z,101071.16
2022-10-05T18:08:51.988Z,101072.21
2022-10-05T18:12:42.486Z,101074.96
2022-10-05T18:16:32.373Z,101069.54
2022-10-05T18:20:15.215Z,101071.60
2022-10-05T18:23:50.472Z,101068.86
2022-10-05T18:27:48.556Z,101066.86
2022-10-05T18:31:45.071Z,101059.92
2022-10-05T18:35:39.029Z,101062.00
2022-10-05T18:39:55.333Z,101064.52
2022-10-05T18:43:59.988Z,101062.85
2022-10-05T18:47:56.706Z,101062.90
2022-10-05T18:51:40.631Z,101062.83
2022-10-05T18:55:15.681Z,101064.50
2022-10-05T18:59:00.339Z,101065.43
2022-10-05T19:02:52.437Z,101068.90
2022-10-05T19:06:38.674Z,101067.73
2022-10-05T19:10:26.081Z,101068.00
2022-10-05T19:14:26.869Z,101068.25
2022-10-05T19:18:35.241Z,101068.70
2022-10-05T19:22:27.325Z,101074.67
2022-10-05T19:26:49.785Z,101075.88
2022-10-05T19:31:02.947Z,101078.59
2022-10-05T19:35:28.622Z,101086.48
2022-10-05T19:39:20.231Z,101087.48
2022-10-05T19:43:18.224Z,101091.91
2022-10-05T19:47:13.127Z,101094.66
2022-10-05T19:50:43.754Z,101097.86
2022-10-05T19:54:38.951Z,101096.44
2022-10-05T19:58:28.313Z,101104.27
2022-10-05T20:02:26.804Z,101104.77
2022-10-05T20:05:58.358Z,101106.36
2022-10-05T20:09:59.480Z,101113.01
2022-10-05T20:14:00.278Z,101118.57
2022-10-05T20:17:58.031Z,101120.81
2022-10-05T20:21:48.094Z,101125.70
2022-10-05T20:25:36.349Z,101129.85
2022-10-05T20:29:31.799Z,101135.71
2022-10-05T20:33:20.470Z,101137.66
2022-10-05T20:37:09.282Z,101143.58
2022-10-05T20:40:58.147Z,101143.57
2022-10-05T20:44:47.709Z,101149.63
2022-10-05T20:48:37.557Z,101149.96
2022-10-05T20:52:08.029Z,101152.61
2022-10-05T20:55:57.231Z,101150.13
2022-10-05T20:59:46.485Z,101152.94
2022-10-05T21:03:28.961Z,101152.85
2022-10-05T21:07:17.981Z,101154.93
2022-10-05T21:11:07.256Z,101157.09
2022-10-05T21:14:59.318Z,101158.31
2022-10-05T21:18:42.143Z,101159.80
2022-10-05T21:22:31.265Z,101164.91
2022-10-05T21:26:21.280Z,101162.89
2022-10-05T21:29:41.571Z,101159.11
2022-10-05T21:33:19.168Z,101167.40
2022-10-05T21:37:08.688Z,101168.77
2022-10-05T21:40:39.128Z,101165.14
2022-10-05T21:44:06.819Z,101165.88
2022-10-05T21:47:55.542Z,101168.02
2022-10-05T21:51:29.557Z,101167.77
2022-10-05T21:55:18.428Z,101173.13
2022-10-05T21:58:47.215Z,101177.58
2022-10-05T22:02:16.201Z,101182.31
2022-10-05T22:06:00.351Z,101184.70
2022-10-05T22:09:42.067Z,101183.86
2022-10-05T22:13:30.954Z,101184.46
2022-10-05T22:17:13.231Z,101185.71
2022-10-05T22:21:02.328Z,101184.44
2022-10-05T22:24:51.307Z,101181.29
2022-10-05T22:28:13.957Z,101182.80
2022-10-05T22:31:56.132Z,101188.56
2022-10-05T22:35:18.043Z,101182.81
2022-10-05T22:38:47.277Z,101182.84
2022-10-05T22:46:27.822Z,101192.33
2022-10-05T22:50:10.717Z,101191.63
2022-10-05T22:53:59.633Z,101192.10
2022-10-05T22:57:40.974Z,101189.90
2022-10-05T23:01:28.941Z,101190.68
2022-10-05T23:05:17.743Z,101194.13
2022-10-05T23:09:01.287Z,101195.62
2022-10-05T23:12:29.797Z,101194.66
2022-10-05T23:16:10.387Z,101197.38
2022-10-05T23:19:59.260Z,101197.81
2022-10-05T23:23:25.520Z,101195.58
2022-10-05T23:27:06.718Z,101193.11
2022-10-05T23:30:24.882Z,101196.33
2022-10-05T23:34:13.808Z,101194.16
2022-10-05T23:38:02.620Z,101198.90
2022-10-05T23:41:18.569Z,101208.10
2022-10-05T23:45:07.531Z,101212.47
2022-10-05T23:48:55.035Z,101211.87
2022-10-05T23:52:42.802Z,101218.35
2022-10-05T23:56:31.550Z,101219.89
